Time;durP1;ratioP1;P1;durP2;ratioP2;P2;SDS_P1;SDS_P2;PMS_P1;PMS_P2;Temp;Humidity;BMP_temperature;BMP_pressure;BME280_temperature;BME280_humidity;BME280_pressure;Samples;Min_cycle;Max_cycle;Signal;HPM_P1;HPM_P2
2022/07/19 00:01:43;;;;;;;5.78;2.10;;;;;;;;;;5078877;28;20030;-69
2022/07/19 00:04:09;;;;;;;4.20;2.10;;;;;;;;;;5088221;28;20401;-69
2022/07/19 00:06:35;;;;;;;4.03;2.15;;;;;;;;;;5101082;28;20028;-69
2022/07/19 00:09:03;;;;;;;3.67;1.92;;;;;;;;;;5074353;28;20025;-69
2022/07/19 00:11:29;;;;;;;3.05;2.00;;;;;;;;;;5076066;28;20450;-70
2022/07/19 00:13:55;;;;;;;4.20;1.90;;;;;;;;;;5076334;28;20027;-69
2022/07/19 00:16:21;;;;;;;6.10;2.90;;;;;;;;;;5086961;28;20086;-68
2022/07/19 00:18:47;;;;;;;5.65;3.00;;;;;;;;;;5076113;28;20020;-68
2022/07/19 00:21:13;;;;;;;5.70;2.60;;;;;;;;;;5077997;28;20025;-70
2022/07/19 00:23:39;;;;;;;3.78;2.25;;;;;;;;;;5094719;28;20029;-68
2022/07/19 00:26:05;;;;;;;4.22;2.30;;;;;;;;;;5082124;28;20538;-69
2022/07/19 00:28:32;;;;;;;3.05;2.33;;;;;;;;;;5079926;28;20033;-69
2022/07/19 00:30:58;;;;;;;7.03;2.60;;;;;;;;;;5078326;28;20056;-68
2022/07/19 00:33:24;;;;;;;4.60;2.75;;;;;;;;;;5086048;28;20016;-69
2022/07/19 00:35:50;;;;;;;7.82;3.10;;;;;;;;;;5089479;28;20040;-68
2022/07/19 00:38:16;;;;;;;6.97;4.03;;;;;;;;;;5078937;28;20029;-68
2022/07/19 00:40:43;;;;;;;8.68;4.72;;;;;;;;;;5085924;28;20044;-70
2022/07/19 00:43:10;;;;;;;8.77;4.20;;;;;;;;;;5085171;28;20401;-66
2022/07/19 00:45:36;;;;;;;6.22;3.88;;;;;;;;;;5085424;28;20020;-69
2022/07/19 00:48:02;;;;;;;10.20;4.25;;;;;;;;;;5074016;28;20025;-70
2022/07/19 00:50:29;;;;;;;10.30;4.10;;;;;;;;;;5079160;28;20032;-69
2022/07/19 00:52:56;;;;;;;5.68;3.90;;;;;;;;;;5084209;28;20071;-69
2022/07/19 00:55:23;;;;;;;10.38;4.43;;;;;;;;;;5083620;28;20064;-69
2022/07/19 00:57:50;;;;;;;8.35;4.43;;;;;;;;;;5079804;28;20024;-69
2022/07/19 01:00:18;;;;;;;5.85;3.63;;;;;;;;;;5074225;28;20090;-68
2022/07/19 01:02:44;;;;;;;6.53;3.90;;;;;;;;;;5084928;28;20021;-69
2022/07/19 01:05:11;;;;;;;6.70;4.00;;;;;;;;;;5083541;28;20046;-68
2022/07/19 01:07:39;;;;;;;5.30;3.72;;;;;;;;;;5083062;28;20398;-68
2022/07/19 01:10:06;;;;;;;9.27;4.10;;;;;;;;;;5084678;28;20103;-69
2022/07/19 01:12:35;;;;;;;7.75;3.53;;;;;;;;;;5071941;28;20048;-70
2022/07/19 01:15:02;;;;;;;6.05;3.38;;;;;;;;;;5072621;28;20052;-69
2022/07/19 01:17:29;;;;;;;4.88;3.47;;;;;;;;;;5082943;28;20113;-69
2022/07/19 01:19:55;;;;;;;6.15;3.50;;;;;;;;;;5083501;28;20043;-68
2022/07/19 01:22:22;;;;;;;4.40;2.80;;;;;;;;;;5079288;28;20027;-68
2022/07/19 01:24:48;;;;;;;5.63;2.60;;;;;;;;;;5086193;28;20028;-69
2022/07/19 01:27:14;;;;;;;7.72;3.13;;;;;;;;;;5084985;28;20111;-70
2022/07/19 01:29:40;;;;;;;6.80;3.00;;;;;;;;;;5079117;28;20024;-69
2022/07/19 01:32:06;;;;;;;4.95;2.80;;;;;;;;;;5089916;28;20035;-68
2022/07/19 01:34:33;;;;;;;6.40;2.70;;;;;;;;;;5080098;28;20028;-68
2022/07/19 01:36:59;;;;;;;5.30;2.45;;;;;;;;;;5084505;28;20440;-68
2022/07/19 01:39:25;;;;;;;8.70;2.50;;;;;;;;;;5080786;28;20047;-68
2022/07/19 01:41:51;;;;;;;6.22;2.90;;;;;;;;;;5087911;28;20055;-68
2022/07/19 01:44:17;;;;;;;5.50;2.50;;;;;;;;;;5076572;28;20397;-68
2022/07/19 01:46:43;;;;;;;5.28;2.40;;;;;;;;;;5075008;28;20526;-69
2022/07/19 01:49:09;;;;;;;3.60;2.30;;;;;;;;;;5092101;28;20028;-68
2022/07/19 01:51:35;;;;;;;3.38;2.30;;;;;;;;;;5081604;28;20043;-69
2022/07/19 01:54:01;;;;;;;3.95;2.30;;;;;;;;;;5093757;28;20032;-68
2022/07/19 01:56:27;;;;;;;5.20;2.20;;;;;;;;;;5082417;28;20045;-68
2022/07/19 01:58:53;;;;;;;5.13;2.13;;;;;;;;;;5081728;28;20073;-70
2022/07/19 02:01:19;;;;;;;5.15;2.00;;;;;;;;;;5084934;28;20032;-68
2022/07/19 02:03:45;;;;;;;5.18;2.00;;;;;;;;;;5086711;28;20020;-70
2022/07/19 02:06:11;;;;;;;2.85;2.10;;;;;;;;;;5081451;28;20020;-69
2022/07/19 02:08:38;;;;;;;6.28;2.33;;;;;;;;;;5079004;28;20418;-69
2022/07/19 02:11:34;;;;;;;2.58;1.98;;;;;;;;;;5097051;28;20020;-69
2022/07/19 02:13:51;;;;;;;2.33;2.05;;;;;;;;;;5088640;28;20503;-68
2022/07/19 02:16:17;;;;;;;8.05;2.22;;;;;;;;;;5074589;28;20032;-68
2022/07/19 02:18:43;;;;;;;8.70;2.58;;;;;;;;;;5083918;28;20028;-68
2022/07/19 02:21:09;;;;;;;6.88;2.53;;;;;;;;;;5090634;28;20024;-69
2022/07/19 02:23:35;;;;;;;5.35;1.92;;;;;;;;;;5082987;28;20034;-68
2022/07/19 02:26:01;;;;;;;8.50;3.10;;;;;;;;;;5080105;28;20028;-69
2022/07/19 02:28:27;;;;;;;4.53;2.15;;;;;;;;;;5092581;28;20110;-70
2022/07/19 02:30:53;;;;;;;2.83;2.15;;;;;;;;;;5081454;28;20120;-68
2022/07/19 02:33:19;;;;;;;3.45;2.10;;;;;;;;;;5085012;28;20473;-68
2022/07/19 02:35:45;;;;;;;2.90;2.10;;;;;;;;;;5076474;28;20036;-70
2022/07/19 02:38:12;;;;;;;3.38;2.03;;;;;;;;;;5091093;28;20020;-69
2022/07/19 02:40:38;;;;;;;3.75;2.40;;;;;;;;;;5092615;28;20032;-68
2022/07/19 02:43:04;;;;;;;7.30;2.25;;;;;;;;;;5095293;28;20020;-68
2022/07/19 02:45:30;;;;;;;3.50;2.53;;;;;;;;;;5084385;28;20024;-69
2022/07/19 02:47:56;;;;;;;6.50;2.35;;;;;;;;;;5076838;28;20021;-69
2022/07/19 02:50:22;;;;;;;5.70;2.00;;;;;;;;;;5084945;28;20054;-69
2022/07/19 02:52:48;;;;;;;3.28;2.42;;;;;;;;;;5099542;28;20501;-69
2022/07/19 02:55:14;;;;;;;8.70;2.50;;;;;;;;;;5082112;28;20081;-70
2022/07/19 02:57:40;;;;;;;5.80;2.50;;;;;;;;;;5084142;28;20103;-68
2022/07/19 03:00:09;;;;;;;3.67;2.60;;;;;;;;;;5085072;28;20024;-68
2022/07/19 03:02:35;;;;;;;4.65;2.58;;;;;;;;;;5091831;28;20016;-69
2022/07/19 03:05:01;;;;;;;7.68;2.70;;;;;;;;;;5077883;28;20038;-68
2022/07/19 03:07:27;;;;;;;5.53;2.60;;;;;;;;;;5078291;28;20032;-68
2022/07/19 03:09:53;;;;;;;4.72;2.80;;;;;;;;;;5078504;28;20021;-69
2022/07/19 03:12:20;;;;;;;4.07;2.70;;;;;;;;;;5073005;28;20062;-70
2022/07/19 03:14:46;;;;;;;5.75;2.40;;;;;;;;;;5078293;28;20137;-68
2022/07/19 03:17:12;;;;;;;3.20;2.28;;;;;;;;;;5080941;28;20439;-68
2022/07/19 03:19:38;;;;;;;3.92;2.42;;;;;;;;;;5078719;28;20028;-69
2022/07/19 03:22:04;;;;;;;3.83;2.25;;;;;;;;;;5081396;28;20020;-69
2022/07/19 03:24:31;;;;;;;3.85;2.60;;;;;;;;;;5085991;28;20054;-69
2022/07/19 03:26:57;;;;;;;4.47;2.47;;;;;;;;;;5098587;28;20020;-69
2022/07/19 03:29:23;;;;;;;2.95;2.28;;;;;;;;;;5073474;28;20051;-68
2022/07/19 03:31:49;;;;;;;6.07;2.75;;;;;;;;;;5081308;28;20031;-67
2022/07/19 03:34:15;;;;;;;6.72;2.20;;;;;;;;;;5087589;28;20024;-68
2022/07/19 03:36:41;;;;;;;3.30;2.30;;;;;;;;;;5095358;28;20059;-67
2022/07/19 03:39:07;;;;;;;5.45;2.30;;;;;;;;;;5078595;28;20017;-69
2022/07/19 03:41:33;;;;;;;6.90;2.65;;;;;;;;;;5073752;28;20028;-69
2022/07/19 03:43:59;;;;;;;5.25;2.33;;;;;;;;;;5086635;28;20366;-68
2022/07/19 03:46:28;;;;;;;6.70;2.28;;;;;;;;;;5089043;28;20467;-68
2022/07/19 03:48:54;;;;;;;9.48;2.95;;;;;;;;;;5072382;28;20056;-69
2022/07/19 03:51:20;;;;;;;7.20;3.05;;;;;;;;;;5086737;28;20082;-69
2022/07/19 03:53:46;;;;;;;7.40;2.92;;;;;;;;;;5079289;28;20064;-69
2022/07/19 03:56:12;;;;;;;10.63;2.75;;;;;;;;;;5084131;28;20035;-69
2022/07/19 03:58:38;;;;;;;4.43;2.28;;;;;;;;;;5104319;28;20023;-69
2022/07/19 04:01:06;;;;;;;4.80;2.40;;;;;;;;;;5079260;28;20033;-67
2022/07/19 04:03:36;;;;;;;4.57;2.60;;;;;;;;;;5077873;28;20172;-69
2022/07/19 04:06:02;;;;;;;8.23;2.53;;;;;;;;;;5081034;28;20024;-69
2022/07/19 04:08:28;;;;;;;4.22;2.60;;;;;;;;;;5089930;28;20025;-70
2022/07/19 04:10:54;;;;;;;3.72;2.33;;;;;;;;;;5085031;28;20024;-68
2022/07/19 04:13:20;;;;;;;6.10;2.50;;;;;;;;;;5091355;28;20121;-70
2022/07/19 04:15:46;;;;;;;3.67;2.30;;;;;;;;;;5073796;28;20044;-74
2022/07/19 04:18:12;;;;;;;4.88;2.30;;;;;;;;;;5086660;28;20026;-70
2022/07/19 04:20:38;;;;;;;5.32;2.45;;;;;;;;;;5087210;28;20020;-71
2022/07/19 04:23:04;;;;;;;4.88;2.47;;;;;;;;;;5090082;28;20031;-68
2022/07/19 04:25:30;;;;;;;5.15;2.50;;;;;;;;;;5084731;28;20025;-72
2022/07/19 04:27:56;;;;;;;7.63;2.80;;;;;;;;;;5082394;28;20020;-71
2022/07/19 04:30:22;;;;;;;6.45;2.67;;;;;;;;;;5084439;28;20465;-71
2022/07/19 04:32:48;;;;;;;12.02;2.80;;;;;;;;;;5087906;28;20036;-75
2022/07/19 04:35:16;;;;;;;8.52;3.40;;;;;;;;;;5074371;28;20040;-70
2022/07/19 04:37:42;;;;;;;14.80;3.50;;;;;;;;;;5076400;28;20060;-70
2022/07/19 04:40:09;;;;;;;12.05;3.58;;;;;;;;;;5083122;28;20024;-74
2022/07/19 04:42:35;;;;;;;12.18;2.92;;;;;;;;;;5085680;28;20508;-72
2022/07/19 04:45:01;;;;;;;7.95;2.78;;;;;;;;;;5071834;28;20052;-70
2022/07/19 04:47:27;;;;;;;7.60;3.22;;;;;;;;;;5084990;28;20020;-72
2022/07/19 04:49:53;;;;;;;15.02;4.20;;;;;;;;;;5074284;28;20040;-73
2022/07/19 04:52:19;;;;;;;21.17;5.22;;;;;;;;;;5087303;28;20043;-72
2022/07/19 04:54:45;;;;;;;20.10;7.75;;;;;;;;;;5083425;28;20029;-75
2022/07/19 04:57:12;;;;;;;12.48;5.53;;;;;;;;;;5078860;28;20044;-76
2022/07/19 04:59:38;;;;;;;13.73;6.53;;;;;;;;;;5073793;28;20151;-71
2022/07/19 05:02:04;;;;;;;13.18;6.07;;;;;;;;;;5086449;28;20032;-79
2022/07/19 05:04:30;;;;;;;12.15;6.70;;;;;;;;;;5106024;28;20084;-73
2022/07/19 05:06:59;;;;;;;14.40;6.45;;;;;;;;;;5087647;28;20032;-73
2022/07/19 05:09:26;;;;;;;15.27;6.80;;;;;;;;;;5082934;28;20090;-70
2022/07/19 05:11:52;;;;;;;14.52;6.72;;;;;;;;;;5084489;28;20023;-71
2022/07/19 05:14:18;;;;;;;11.35;7.32;;;;;;;;;;5078814;28;20043;-74
2022/07/19 05:16:45;;;;;;;10.93;6.78;;;;;;;;;;5095961;28;20485;-69
2022/07/19 05:19:11;;;;;;;11.02;6.00;;;;;;;;;;5084261;28;20501;-69
2022/07/19 05:21:37;;;;;;;11.32;5.80;;;;;;;;;;5092474;28;20036;-67
2022/07/19 05:24:03;;;;;;;10.82;5.50;;;;;;;;;;5089476;28;20032;-73
2022/07/19 05:26:31;;;;;;;9.40;5.10;;;;;;;;;;5085541;28;20099;-70
2022/07/19 05:28:57;;;;;;;9.50;4.38;;;;;;;;;;5083756;28;20023;-71
2022/07/19 05:31:23;;;;;;;9.77;4.47;;;;;;;;;;5078374;28;20043;-70
2022/07/19 05:33:50;;;;;;;8.60;4.28;;;;;;;;;;5079112;28;20023;-72
2022/07/19 05:36:16;;;;;;;7.93;4.28;;;;;;;;;;5077813;28;20119;-71
2022/07/19 05:38:42;;;;;;;7.40;3.20;;;;;;;;;;5083433;28;20028;-73
2022/07/19 05:41:09;;;;;;;4.78;3.58;;;;;;;;;;5086093;27;20031;-73
2022/07/19 05:43:36;;;;;;;3.88;2.95;;;;;;;;;;5088254;28;20016;-73
2022/07/19 05:46:03;;;;;;;5.57;3.20;;;;;;;;;;5074704;28;20040;-71
2022/07/19 05:48:29;;;;;;;4.97;2.90;;;;;;;;;;5077645;28;20056;-70
2022/07/19 05:50:55;;;;;;;3.67;2.92;;;;;;;;;;5091376;28;20455;-69
2022/07/19 05:53:21;;;;;;;6.03;3.22;;;;;;;;;;5098931;28;20044;-72
2022/07/19 05:55:47;;;;;;;5.18;2.90;;;;;;;;;;5078598;28;20123;-73
2022/07/19 05:58:13;;;;;;;13.48;3.58;;;;;;;;;;5079993;28;20020;-73
2022/07/19 06:01:17;;;;;;;6.88;3.42;;;;;;;;;;5080116;28;20063;-74
2022/07/19 06:03:26;;;;;;;7.05;3.38;;;;;;;;;;5097392;28;20034;-74
2022/07/19 06:05:52;;;;;;;5.03;3.25;;;;;;;;;;5082611;28;20064;-71
2022/07/19 06:08:18;;;;;;;5.88;2.90;;;;;;;;;;5087455;28;20039;-72
2022/07/19 06:10:44;;;;;;;4.10;3.00;;;;;;;;;;5087019;28;20114;-72
2022/07/19 06:13:10;;;;;;;9.20;3.10;;;;;;;;;;5084198;28;20043;-71
2022/07/19 06:15:36;;;;;;;4.65;3.00;;;;;;;;;;5087973;28;20040;-71
2022/07/19 06:18:02;;;;;;;7.40;2.90;;;;;;;;;;5074940;28;20119;-74
2022/07/19 06:20:28;;;;;;;3.60;2.65;;;;;;;;;;5076405;28;20036;-74
2022/07/19 06:22:54;;;;;;;5.18;3.08;;;;;;;;;;5086390;28;20028;-70
2022/07/19 06:25:20;;;;;;;6.32;2.90;;;;;;;;;;5078544;28;20029;-70
2022/07/19 06:27:46;;;;;;;9.27;3.25;;;;;;;;;;5078555;28;20020;-71
2022/07/19 06:30:12;;;;;;;5.03;3.30;;;;;;;;;;5084321;28;20051;-69
2022/07/19 06:32:38;;;;;;;5.78;3.15;;;;;;;;;;5083958;28;20103;-68
2022/07/19 06:35:05;;;;;;;5.25;2.90;;;;;;;;;;5089552;28;20448;-70
2022/07/19 06:37:31;;;;;;;8.82;3.33;;;;;;;;;;5087520;28;20137;-70
2022/07/19 06:39:57;;;;;;;12.15;3.63;;;;;;;;;;5092139;28;20023;-76
2022/07/19 06:42:23;;;;;;;19.20;4.85;;;;;;;;;;5092162;28;20028;-78
2022/07/19 06:44:49;;;;;;;7.50;3.50;;;;;;;;;;5090938;28;20397;-80
2022/07/19 06:47:15;;;;;;;7.80;3.85;;;;;;;;;;5083065;28;20363;-76
2022/07/19 06:49:41;;;;;;;8.88;4.00;;;;;;;;;;5078651;28;20144;-74
2022/07/19 06:52:07;;;;;;;10.02;4.30;;;;;;;;;;5079762;28;20084;-76
2022/07/19 06:54:33;;;;;;;7.03;3.67;;;;;;;;;;5083713;28;20077;-84
2022/07/19 06:56:59;;;;;;;7.70;3.78;;;;;;;;;;5092175;28;20043;-72
2022/07/19 06:59:25;;;;;;;9.25;3.90;;;;;;;;;;5088610;28;20558;-74
2022/07/19 07:01:52;;;;;;;5.97;3.75;;;;;;;;;;5089710;28;20032;-71
2022/07/19 07:04:19;;;;;;;8.80;4.13;;;;;;;;;;5096252;28;20476;-71
2022/07/19 07:06:45;;;;;;;9.40;4.10;;;;;;;;;;5092855;28;20103;-71
2022/07/19 07:09:11;;;;;;;7.97;4.05;;;;;;;;;;5086018;28;20086;-77
2022/07/19 07:11:37;;;;;;;9.95;4.20;;;;;;;;;;5088154;28;20035;-71
2022/07/19 07:14:03;;;;;;;8.88;3.95;;;;;;;;;;5084030;28;20028;-70
2022/07/19 07:16:29;;;;;;;13.40;4.95;;;;;;;;;;5087810;28;20075;-71
2022/07/19 07:18:55;;;;;;;7.07;3.67;;;;;;;;;;5084153;28;20473;-75
2022/07/19 07:21:21;;;;;;;6.22;4.07;;;;;;;;;;5083898;28;20033;-71
2022/07/19 07:23:47;;;;;;;8.70;4.07;;;;;;;;;;5094939;28;20051;-72
2022/07/19 07:26:13;;;;;;;7.60;4.20;;;;;;;;;;5085350;28;20024;-72
2022/07/19 07:28:39;;;;;;;12.77;4.20;;;;;;;;;;5082538;28;20469;-74
2022/07/19 07:31:06;;;;;;;11.00;4.00;;;;;;;;;;5087408;28;20103;-73
2022/07/19 07:33:32;;;;;;;7.15;3.72;;;;;;;;;;5090207;28;20026;-73
2022/07/19 07:35:58;;;;;;;8.18;4.00;;;;;;;;;;5090435;28;20469;-74
2022/07/19 07:38:24;;;;;;;9.32;3.80;;;;;;;;;;5081414;28;20539;-75
2022/07/19 07:40:50;;;;;;;10.30;3.78;;;;;;;;;;5075834;28;20412;-75
2022/07/19 07:43:16;;;;;;;8.25;3.72;;;;;;;;;;5090692;28;20016;-72
2022/07/19 07:45:42;;;;;;;9.00;3.53;;;;;;;;;;5084548;28;20085;-71
2022/07/19 07:48:08;;;;;;;12.65;3.83;;;;;;;;;;5085406;28;20025;-70
2022/07/19 07:50:35;;;;;;;6.55;3.50;;;;;;;;;;5079243;28;20028;-68
2022/07/19 07:53:01;;;;;;;10.43;3.42;;;;;;;;;;5078769;28;20049;-72
2022/07/19 07:55:27;;;;;;;6.53;2.85;;;;;;;;;;5075781;28;20072;-71
2022/07/19 07:57:53;;;;;;;18.98;3.30;;;;;;;;;;5072798;28;20060;-70
2022/07/19 08:00:19;;;;;;;7.55;2.90;;;;;;;;;;5101627;28;20047;-71
2022/07/19 08:02:45;;;;;;;17.52;3.53;;;;;;;;;;5084551;28;20452;-69
2022/07/19 08:05:12;;;;;;;7.60;2.70;;;;;;;;;;5076093;28;20060;-71
2022/07/19 08:07:38;;;;;;;10.77;3.20;;;;;;;;;;5072353;28;20027;-69
2022/07/19 08:10:06;;;;;;;5.32;2.83;;;;;;;;;;5081502;28;20468;-69
2022/07/19 08:12:32;;;;;;;3.33;2.50;;;;;;;;;;5072529;28;20504;-71
2022/07/19 08:14:58;;;;;;;12.88;3.10;;;;;;;;;;5085155;28;20031;-70
2022/07/19 08:17:25;;;;;;;12.25;2.90;;;;;;;;;;5073478;28;20032;-71
2022/07/19 08:19:51;;;;;;;10.10;3.08;;;;;;;;;;5074082;28;20031;-69
2022/07/19 08:22:18;;;;;;;4.13;2.70;;;;;;;;;;5080409;28;20031;-69
2022/07/19 08:24:45;;;;;;;6.70;2.78;;;;;;;;;;5081540;28;20036;-69
2022/07/19 08:27:11;;;;;;;6.50;2.78;;;;;;;;;;5091030;28;20033;-69
2022/07/19 08:29:37;;;;;;;4.78;2.88;;;;;;;;;;5071892;28;20100;-69
2022/07/19 08:32:03;;;;;;;9.07;3.38;;;;;;;;;;5073791;28;20042;-70
2022/07/19 08:34:29;;;;;;;5.28;2.60;;;;;;;;;;5072093;28;20028;-72
2022/07/19 08:36:55;;;;;;;6.30;3.15;;;;;;;;;;5081344;28;20036;-71
2022/07/19 08:39:22;;;;;;;10.23;3.03;;;;;;;;;;5078595;28;20481;-70
2022/07/19 08:41:48;;;;;;;9.45;2.92;;;;;;;;;;5077406;28;20033;-71
2022/07/19 08:44:17;;;;;;;7.57;2.63;;;;;;;;;;5075992;28;20523;-71
2022/07/19 08:46:44;;;;;;;6.32;2.53;;;;;;;;;;5076245;28;20033;-73
2022/07/19 08:49:10;;;;;;;5.13;2.30;;;;;;;;;;5076354;28;20020;-71
2022/07/19 08:51:37;;;;;;;6.32;2.33;;;;;;;;;;5091695;28;20055;-69
2022/07/19 08:54:03;;;;;;;6.90;2.78;;;;;;;;;;5076852;28;20462;-72
2022/07/19 08:59:14;;;;;;;8.27;2.85;;;;;;;;;;5076027;28;20031;-69
2022/07/19 09:01:40;;;;;;;8.15;2.47;;;;;;;;;;5090138;28;20035;-70
2022/07/19 09:04:09;;;;;;;9.18;2.60;;;;;;;;;;5084629;28;20587;-72
2022/07/19 09:06:41;;;;;;;56.70;5.35;;;;;;;;;;5081139;28;20036;-71
2022/07/19 09:09:08;;;;;;;7.13;2.25;;;;;;;;;;5075605;28;20020;-69
2022/07/19 09:11:40;;;;;;;9.93;2.90;;;;;;;;;;5075406;28;20036;-72
2022/07/19 09:14:09;;;;;;;4.93;2.57;;;;;;;;;;5087673;28;20096;-70
2022/07/19 09:16:53;;;;;;;7.93;2.78;;;;;;;;;;5075445;28;20410;-72
2022/07/19 09:19:20;;;;;;;10.52;2.50;;;;;;;;;;5075590;28;20109;-70
2022/07/19 09:21:56;;;;;;;10.73;2.65;;;;;;;;;;5075471;28;20028;-70
2022/07/19 09:24:23;;;;;;;7.03;2.60;;;;;;;;;;5083404;28;20456;-71
2022/07/19 09:26:56;;;;;;;4.72;2.22;;;;;;;;;;5095963;28;20385;-71
2022/07/19 09:29:22;;;;;;;10.30;2.60;;;;;;;;;;5075946;28;20046;-69
2022/07/19 09:32:05;;;;;;;6.22;2.85;;;;;;;;;;5075380;28;20520;-72
2022/07/19 09:34:31;;;;;;;;;;;;;;;;;;5081622;28;20051;-69
2022/07/19 09:37:09;;;;;;;3.60;2.10;;;;;;;;;;5089663;28;20391;-68
2022/07/19 09:39:36;;;;;;;5.32;2.45;;;;;;;;;;5075452;28;20161;-69
2022/07/19 09:42:03;;;;;;;7.53;2.10;;;;;;;;;;5074844;28;20078;-70
2022/07/19 09:44:29;;;;;;;3.95;2.33;;;;;;;;;;5075405;28;20024;-69
2022/07/19 09:46:55;;;;;;;8.38;2.30;;;;;;;;;;5092647;28;20081;-70
2022/07/19 09:49:21;;;;;;;8.68;2.90;;;;;;;;;;5095903;28;20055;-72
2022/07/19 09:51:49;;;;;;;5.32;2.30;;;;;;;;;;5089912;28;20052;-69
2022/07/19 09:54:20;;;;;;;5.40;2.22;;;;;;;;;;5083834;28;20020;-70
2022/07/19 09:56:46;;;;;;;7.45;2.85;;;;;;;;;;5089020;28;20040;-70
2022/07/19 09:59:13;;;;;;;10.18;3.05;;;;;;;;;;5074607;28;20425;-70
2022/07/19 10:01:40;;;;;;;5.30;2.38;;;;;;;;;;5074798;28;20017;-70
2022/07/19 10:04:10;;;;;;;13.52;2.67;;;;;;;;;;5074713;28;20104;-70
2022/07/19 10:06:37;;;;;;;4.15;2.47;;;;;;;;;;5079970;28;20031;-69
2022/07/19 10:09:04;;;;;;;4.50;2.28;;;;;;;;;;5078469;28;20023;-69
2022/07/19 10:11:30;;;;;;;4.40;2.25;;;;;;;;;;5077702;28;20029;-69
2022/07/19 10:13:57;;;;;;;5.05;2.30;;;;;;;;;;5074522;28;20016;-72
2022/07/19 10:16:46;;;;;;;3.20;2.00;;;;;;;;;;5073135;28;20035;-69
2022/07/19 10:19:12;;;;;;;4.07;2.10;;;;;;;;;;5102168;27;20434;-69
2022/07/19 10:21:39;;;;;;;3.47;2.15;;;;;;;;;;5074362;28;20059;-70
2022/07/19 10:24:05;;;;;;;7.97;2.22;;;;;;;;;;5074341;28;20377;-70
2022/07/19 10:26:35;;;;;;;3.65;2.30;;;;;;;;;;5074536;28;20039;-71
2022/07/19 10:29:11;;;;;;;6.32;2.33;;;;;;;;;;5091148;28;20028;-71
2022/07/19 10:31:38;;;;;;;6.78;2.65;;;;;;;;;;5074427;28;20031;-71
2022/07/19 10:34:04;;;;;;;4.95;2.30;;;;;;;;;;5074129;28;20024;-70
2022/07/19 10:36:34;;;;;;;5.05;2.45;;;;;;;;;;5074029;28;20063;-70
2022/07/19 10:39:21;;;;;;;5.07;2.13;;;;;;;;;;5081053;28;20024;-70
2022/07/19 10:42:06;;;;;;;6.30;2.35;;;;;;;;;;5073651;28;20170;-72
2022/07/19 10:44:33;;;;;;;4.03;2.17;;;;;;;;;;5093490;28;20464;-69
2022/07/19 10:46:59;;;;;;;5.80;2.05;;;;;;;;;;5094024;28;20047;-70
2022/07/19 10:49:44;;;;;;;10.18;2.55;;;;;;;;;;5085811;28;20475;-70
2022/07/19 10:52:28;;;;;;;5.65;2.20;;;;;;;;;;5088059;28;20085;-71
2022/07/19 10:55:13;;;;;;;6.05;2.20;;;;;;;;;;5089675;28;20027;-70
2022/07/19 10:57:39;;;;;;;8.55;2.28;;;;;;;;;;5093541;28;20031;-69
2022/07/19 11:00:22;;;;;;;4.20;2.30;;;;;;;;;;5089327;28;20084;-69
2022/07/19 11:02:48;;;;;;;3.73;2.10;;;;;;;;;;5091551;28;20020;-68
2022/07/19 11:05:20;;;;;;;4.05;2.28;;;;;;;;;;5091367;28;20035;-72
2022/07/19 11:07:50;;;;;;;2.50;2.08;;;;;;;;;;5088242;28;20032;-73
2022/07/19 11:10:30;;;;;;;9.15;2.50;;;;;;;;;;5090373;28;20077;-74
2022/07/19 11:12:57;;;;;;;7.65;3.13;;;;;;;;;;5095746;28;20020;-75
2022/07/19 11:15:23;;;;;;;6.10;2.45;;;;;;;;;;5084524;28;20037;-74
2022/07/19 11:17:53;;;;;;;5.57;2.38;;;;;;;;;;5078994;28;20055;-75
2022/07/19 11:20:22;;;;;;;4.13;2.22;;;;;;;;;;5097596;28;20024;-75
2022/07/19 11:22:48;;;;;;;7.80;2.70;;;;;;;;;;5081083;28;20089;-75
2022/07/19 11:25:16;;;;;;;3.05;2.20;;;;;;;;;;5096076;28;20066;-73
2022/07/19 11:27:47;;;;;;;3.80;2.17;;;;;;;;;;5093685;28;20050;-73
2022/07/19 11:30:14;;;;;;;3.47;2.15;;;;;;;;;;5088524;28;20069;-74
2022/07/19 11:32:44;;;;;;;9.15;2.33;;;;;;;;;;5093164;28;20031;-73
2022/07/19 11:35:12;;;;;;;6.25;2.13;;;;;;;;;;5079386;28;20028;-75
2022/07/19 11:37:39;;;;;;;4.57;2.20;;;;;;;;;;5091920;28;20485;-72
2022/07/19 11:40:06;;;;;;;4.75;2.10;;;;;;;;;;5085737;28;20099;-71
2022/07/19 11:42:33;;;;;;;10.38;2.30;;;;;;;;;;5088330;28;20020;-71
2022/07/19 11:45:00;;;;;;;2.72;2.20;;;;;;;;;;5101662;28;20020;-74
2022/07/19 11:47:26;;;;;;;3.95;2.30;;;;;;;;;;5089663;28;20111;-74
2022/07/19 11:49:52;;;;;;;4.57;2.10;;;;;;;;;;5095399;28;20020;-74
2022/07/19 11:52:18;;;;;;;2.63;1.90;;;;;;;;;;5092259;28;20533;-74
2022/07/19 11:54:58;;;;;;;5.90;2.28;;;;;;;;;;5080248;28;20032;-75
2022/07/19 11:57:26;;;;;;;7.75;2.53;;;;;;;;;;5083100;28;20039;-74
2022/07/19 11:59:53;;;;;;;3.65;2.20;;;;;;;;;;5092599;28;20090;-76
2022/07/19 12:02:19;;;;;;;8.60;2.40;;;;;;;;;;5092257;28;20024;-73
2022/07/19 12:04:45;;;;;;;7.78;2.30;;;;;;;;;;5092637;28;20035;-74
2022/07/19 12:07:11;;;;;;;4.43;2.10;;;;;;;;;;5091712;28;20511;-74
2022/07/19 12:09:37;;;;;;;4.25;2.22;;;;;;;;;;5091422;28;20036;-73
2022/07/19 12:12:24;;;;;;;4.70;2.30;;;;;;;;;;5092050;28;20020;-73
2022/07/19 12:15:05;;;;;;;4.70;2.20;;;;;;;;;;5088384;28;20046;-74
2022/07/19 12:17:31;;;;;;;4.72;2.03;;;;;;;;;;5087198;28;20036;-70
2022/07/19 12:20:08;;;;;;;4.72;2.20;;;;;;;;;;5093751;28;20032;-73
2022/07/19 12:22:35;;;;;;;39.67;4.70;;;;;;;;;;5091704;28;20070;-74
2022/07/19 12:25:02;;;;;;;3.90;2.20;;;;;;;;;;5077996;28;20409;-73
2022/07/19 12:27:28;;;;;;;8.18;2.85;;;;;;;;;;5093590;28;20028;-74
2022/07/19 12:29:56;;;;;;;10.60;2.58;;;;;;;;;;5087630;28;20020;-77
2022/07/19 12:32:33;;;;;;;16.33;3.05;;;;;;;;;;5089213;28;20033;-75
2022/07/19 12:35:03;;;;;;;5.75;2.15;;;;;;;;;;5087319;28;20063;-75
2022/07/19 12:37:30;;;;;;;6.78;2.00;;;;;;;;;;5081933;28;20067;-72
2022/07/19 12:39:56;;;;;;;8.70;2.30;;;;;;;;;;5087464;28;20020;-72
2022/07/19 12:42:22;;;;;;;6.18;2.10;;;;;;;;;;5090446;28;20111;-79
2022/07/19 12:44:49;;;;;;;4.53;2.05;;;;;;;;;;5078965;28;20393;-73
2022/07/19 12:47:15;;;;;;;6.78;2.45;;;;;;;;;;5078827;28;20047;-73
2022/07/19 12:49:45;;;;;;;4.00;2.33;;;;;;;;;;5086362;28;20036;-73
2022/07/19 12:52:11;;;;;;;3.63;2.10;;;;;;;;;;5094686;28;20040;-74
2022/07/19 12:54:38;;;;;;;3.97;2.10;;;;;;;;;;5085213;28;20059;-72
2022/07/19 12:57:04;;;;;;;3.85;2.00;;;;;;;;;;5086880;28;20641;-73
2022/07/19 12:59:39;;;;;;;4.63;2.00;;;;;;;;;;5085181;28;20028;-73
2022/07/19 13:02:06;;;;;;;5.75;2.10;;;;;;;;;;5079140;28;20036;-73
2022/07/19 13:04:32;;;;;;;4.32;2.15;;;;;;;;;;5087159;28;20059;-73
2022/07/19 13:06:58;;;;;;;4.75;2.05;;;;;;;;;;5091991;28;20024;-72
2022/07/19 13:09:24;;;;;;;6.18;2.22;;;;;;;;;;5087190;28;20056;-72
2022/07/19 13:11:50;;;;;;;5.43;2.00;;;;;;;;;;5083821;28;20020;-73
2022/07/19 13:14:16;;;;;;;7.00;2.20;;;;;;;;;;5086106;28;20086;-77
2022/07/19 13:16:42;;;;;;;2.70;2.00;;;;;;;;;;5091811;28;20040;-75
2022/07/19 13:19:09;;;;;;;3.63;1.83;;;;;;;;;;5082724;28;20065;-75
2022/07/19 13:21:35;;;;;;;8.85;2.40;;;;;;;;;;5089129;28;20032;-73
2022/07/19 13:24:01;;;;;;;6.40;2.78;;;;;;;;;;5096292;28;20032;-75
2022/07/19 13:26:27;;;;;;;6.35;2.10;;;;;;;;;;5079069;28;20028;-75
2022/07/19 13:28:53;;;;;;;3.63;2.15;;;;;;;;;;5084154;28;20055;-77
2022/07/19 13:31:19;;;;;;;2.00;1.80;;;;;;;;;;5092287;28;20031;-75
2022/07/19 13:33:46;;;;;;;23.65;3.38;;;;;;;;;;5093484;28;20099;-78
2022/07/19 13:36:12;;;;;;;2.97;2.00;;;;;;;;;;5086306;28;20032;-73
2022/07/19 13:38:40;;;;;;;5.25;1.95;;;;;;;;;;5092505;28;20050;-74
2022/07/19 13:41:07;;;;;;;4.85;2.10;;;;;;;;;;5092902;28;20385;-75
2022/07/19 13:43:33;;;;;;;7.65;2.30;;;;;;;;;;5093884;28;20085;-76
2022/07/19 13:45:59;;;;;;;11.70;2.45;;;;;;;;;;5098512;28;20028;-74
2022/07/19 13:48:25;;;;;;;8.95;2.50;;;;;;;;;;5093074;28;20082;-74
2022/07/19 13:50:52;;;;;;;5.07;1.98;;;;;;;;;;5088882;28;20031;-74
2022/07/19 13:53:18;;;;;;;11.25;2.25;;;;;;;;;;5088097;28;20118;-74
2022/07/19 13:55:44;;;;;;;6.40;2.03;;;;;;;;;;5089125;28;20039;-75
2022/07/19 13:58:10;;;;;;;5.03;2.15;;;;;;;;;;5093591;28;20031;-75
2022/07/19 14:00:36;;;;;;;2.55;1.90;;;;;;;;;;5084377;28;20036;-75
2022/07/19 14:03:02;;;;;;;4.55;1.85;;;;;;;;;;5089166;28;20474;-75
2022/07/19 14:05:28;;;;;;;3.83;2.00;;;;;;;;;;5084860;28;20020;-73
2022/07/19 14:07:54;;;;;;;3.42;1.63;;;;;;;;;;5088774;28;20016;-74
2022/07/19 14:10:21;;;;;;;3.92;2.00;;;;;;;;;;5081338;28;20075;-74
2022/07/19 14:12:47;;;;;;;4.68;1.90;;;;;;;;;;5083551;28;20024;-74
2022/07/19 14:15:13;;;;;;;3.30;1.80;;;;;;;;;;5091110;28;20063;-75
2022/07/19 14:17:39;;;;;;;2.95;1.80;;;;;;;;;;5086864;28;20028;-73
2022/07/19 14:20:05;;;;;;;6.50;2.22;;;;;;;;;;5090334;28;20496;-76
2022/07/19 14:22:32;;;;;;;1.95;1.70;;;;;;;;;;5083869;28;20406;-74
2022/07/19 14:24:59;;;;;;;4.85;2.15;;;;;;;;;;5091306;28;20017;-75
2022/07/19 14:27:25;;;;;;;3.70;2.08;;;;;;;;;;5094138;28;20028;-75
2022/07/19 14:29:51;;;;;;;8.75;2.22;;;;;;;;;;5082312;28;20029;-76
2022/07/19 14:32:17;;;;;;;7.70;2.30;;;;;;;;;;5081116;28;20028;-73
2022/07/19 14:34:44;;;;;;;2.72;1.90;;;;;;;;;;5085909;28;20081;-73
2022/07/19 14:37:10;;;;;;;6.07;2.05;;;;;;;;;;5088458;28;20036;-74
2022/07/19 14:39:36;;;;;;;6.53;2.15;;;;;;;;;;5084436;28;20048;-75
2022/07/19 14:42:03;;;;;;;3.47;1.77;;;;;;;;;;5083815;28;20034;-74
2022/07/19 14:44:29;;;;;;;4.07;2.05;;;;;;;;;;5078232;28;20024;-74